sensor_id;sensor_type;location;lat;lon;timestamp;P1;durP1;ratioP1;P2;durP2;ratioP2
75744;SDS011;74462;51.366;-0.222;2024-03-06T00:00:55;8.30;;;5.50;;
75744;SDS011;74462;51.366;-0.222;2024-03-06T00:02:00;6.30;;;5.10;;
75744;SDS011;74462;51.366;-0.222;2024-03-06T00:03:05;8.70;;;7.00;;
75744;SDS011;74462;51.366;-0.222;2024-03-06T00:04:09;8.80;;;7.70;;
75744;SDS011;74462;51.366;-0.222;2024-03-06T00:05:14;11.60;;;6.90;;
75744;SDS011;74462;51.366;-0.222;2024-03-06T00:06:18;8.70;;;6.10;;
75744;SDS011;74462;51.366;-0.222;2024-03-06T00:07:23;9.70;;;8.60;;
75744;SDS011;74462;51.366;-0.222;2024-03-06T00:08:27;10.70;;;6.40;;
75744;SDS011;74462;51.366;-0.222;2024-03-06T00:09:32;7.00;;;5.60;;
75744;SDS011;74462;51.366;-0.222;2024-03-06T00:10:37;8.60;;;7.70;;
75744;SDS011;74462;51.366;-0.222;2024-03-06T00:11:43;9.90;;;7.90;;
75744;SDS011;74462;51.366;-0.222;2024-03-06T00:12:47;8.90;;;8.00;;
75744;SDS011;74462;51.366;-0.222;2024-03-06T00:13:51;7.10;;;5.80;;
75744;SDS011;74462;51.366;-0.222;2024-03-06T00:14:56;7.50;;;5.30;;
75744;SDS011;74462;51.366;-0.222;2024-03-06T00:16:00;7.20;;;6.20;;
75744;SDS011;74462;51.366;-0.222;2024-03-06T00:17:05;9.50;;;8.00;;
75744;SDS011;74462;51.366;-0.222;2024-03-06T00:18:11;9.70;;;8.30;;
75744;SDS011;74462;51.366;-0.222;2024-03-06T00:19:15;12.00;;;9.30;;
75744;SDS011;74462;51.366;-0.222;2024-03-06T00:20:20;7.50;;;6.70;;
75744;SDS011;74462;51.366;-0.222;2024-03-06T00:21:24;8.80;;;5.80;;
75744;SDS011;74462;51.366;-0.222;2024-03-06T00:22:30;7.00;;;6.10;;
75744;SDS011;74462;51.366;-0.222;2024-03-06T00:23:34;7.50;;;5.40;;
75744;SDS011;74462;51.366;-0.222;2024-03-06T00:24:38;10.90;;;7.70;;
75744;SDS011;74462;51.366;-0.222;2024-03-06T00:25:43;8.80;;;6.20;;
75744;SDS011;74462;51.366;-0.222;2024-03-06T00:26:48;8.10;;;6.70;;
75744;SDS011;74462;51.366;-0.222;2024-03-06T00:27:52;9.10;;;6.40;;
75744;SDS011;74462;51.366;-0.222;2024-03-06T00:28:57;9.50;;;7.10;;
75744;SDS011;74462;51.366;-0.222;2024-03-06T00:30:01;8.70;;;6.70;;
75744;SDS011;74462;51.366;-0.222;2024-03-06T00:31:06;8.90;;;6.00;;
75744;SDS011;74462;51.366;-0.222;2024-03-06T00:32:11;7.80;;;7.00;;
75744;SDS011;74462;51.366;-0.222;2024-03-06T00:33:15;7.00;;;5.80;;
75744;SDS011;74462;51.366;-0.222;2024-03-06T00:34:20;8.60;;;6.10;;
75744;SDS011;74462;51.366;-0.222;2024-03-06T00:35:24;12.00;;;8.60;;
75744;SDS011;74462;51.366;-0.222;2024-03-06T00:36:30;12.30;;;7.70;;
75744;SDS011;74462;51.366;-0.222;2024-03-06T00:37:34;10.60;;;7.00;;
75744;SDS011;74462;51.366;-0.222;2024-03-06T00:38:39;11.50;;;9.00;;
75744;SDS011;74462;51.366;-0.222;2024-03-06T00:39:44;11.70;;;8.80;;
75744;SDS011;74462;51.366;-0.222;2024-03-06T00:40:48;10.40;;;7.10;;
75744;SDS011;74462;51.366;-0.222;2024-03-06T00:41:53;10.50;;;6.90;;
75744;SDS011;74462;51.366;-0.222;2024-03-06T00:42:58;9.70;;;6.50;;
75744;SDS011;74462;51.366;-0.222;2024-03-06T00:44:02;10.20;;;8.50;;
75744;SDS011;74462;51.366;-0.222;2024-03-06T00:45:08;9.50;;;8.50;;
75744;SDS011;74462;51.366;-0.222;2024-03-06T00:46:12;11.80;;;9.10;;
75744;SDS011;74462;51.366;-0.222;2024-03-06T00:47:17;9.70;;;6.90;;
75744;SDS011;74462;51.366;-0.222;2024-03-06T00:48:23;12.40;;;9.30;;
75744;SDS011;74462;51.366;-0.222;2024-03-06T00:49:27;10.80;;;7.10;;
75744;SDS011;74462;51.366;-0.222;2024-03-06T00:50:32;10.80;;;8.10;;
75744;SDS011;74462;51.366;-0.222;2024-03-06T00:51:36;11.80;;;8.40;;
75744;SDS011;74462;51.366;-0.222;2024-03-06T00:52:41;11.50;;;9.30;;
75744;SDS011;74462;51.366;-0.222;2024-03-06T00:53:45;12.50;;;7.20;;
75744;SDS011;74462;51.366;-0.222;2024-03-06T00:54:50;11.10;;;9.80;;
75744;SDS011;74462;51.366;-0.222;2024-03-06T00:55:54;12.00;;;8.70;;
75744;SDS011;74462;51.366;-0.222;2024-03-06T00:56:58;11.70;;;7.70;;
75744;SDS011;74462;51.366;-0.222;2024-03-06T00:58:03;11.50;;;7.60;;
75744;SDS011;74462;51.366;-0.222;2024-03-06T00:59:08;10.60;;;7.70;;
75744;SDS011;74462;51.366;-0.222;2024-03-06T01:00:13;11.60;;;7.20;;
75744;SDS011;74462;51.366;-0.222;2024-03-06T01:01:19;11.10;;;7.90;;
75744;SDS011;74462;51.366;-0.222;2024-03-06T01:02:23;13.10;;;11.10;;
75744;SDS011;74462;51.366;-0.222;2024-03-06T01:03:28;12.00;;;10.20;;
75744;SDS011;74462;51.366;-0.222;2024-03-06T01:04:32;12.00;;;7.50;;
75744;SDS011;74462;51.366;-0.222;2024-03-06T01:05:36;12.20;;;9.90;;
75744;SDS011;74462;51.366;-0.222;2024-03-06T01:06:41;10.60;;;7.30;;
75744;SDS011;74462;51.366;-0.222;2024-03-06T01:07:46;12.90;;;8.40;;
75744;SDS011;74462;51.366;-0.222;2024-03-06T01:08:51;11.70;;;9.10;;
75744;SDS011;74462;51.366;-0.222;2024-03-06T01:09:56;11.00;;;8.30;;
75744;SDS011;74462;51.366;-0.222;2024-03-06T01:11:00;12.20;;;7.70;;
75744;SDS011;74462;51.366;-0.222;2024-03-06T01:12:06;11.60;;;9.60;;
75744;SDS011;74462;51.366;-0.222;2024-03-06T01:13:10;11.20;;;9.90;;
75744;SDS011;74462;51.366;-0.222;2024-03-06T01:14:14;9.60;;;7.50;;
75744;SDS011;74462;51.366;-0.222;2024-03-06T01:15:19;11.00;;;9.40;;
75744;SDS011;74462;51.366;-0.222;2024-03-06T01:16:23;12.70;;;10.80;;
75744;SDS011;74462;51.366;-0.222;2024-03-06T01:17:27;12.70;;;9.60;;
75744;SDS011;74462;51.366;-0.222;2024-03-06T01:18:32;11.30;;;7.60;;
75744;SDS011;74462;51.366;-0.222;2024-03-06T01:19:36;10.80;;;6.60;;
75744;SDS011;74462;51.366;-0.222;2024-03-06T01:20:40;11.60;;;7.90;;
75744;SDS011;74462;51.366;-0.222;2024-03-06T01:21:45;14.50;;;8.80;;
75744;SDS011;74462;51.366;-0.222;2024-03-06T01:22:50;10.70;;;7.10;;
75744;SDS011;74462;51.366;-0.222;2024-03-06T01:23:54;10.20;;;7.80;;
75744;SDS011;74462;51.366;-0.222;2024-03-06T01:24:58;12.40;;;10.90;;
75744;SDS011;74462;51.366;-0.222;2024-03-06T01:26:03;10.70;;;7.20;;
75744;SDS011;74462;51.366;-0.222;2024-03-06T01:27:08;12.30;;;8.00;;
75744;SDS011;74462;51.366;-0.222;2024-03-06T01:28:12;12.10;;;7.50;;
75744;SDS011;74462;51.366;-0.222;2024-03-06T01:29:17;11.90;;;9.80;;
75744;SDS011;74462;51.366;-0.222;2024-03-06T01:30:22;10.50;;;7.60;;
75744;SDS011;74462;51.366;-0.222;2024-03-06T01:31:26;12.80;;;10.70;;
75744;SDS011;74462;51.366;-0.222;2024-03-06T01:32:30;11.30;;;9.70;;
75744;SDS011;74462;51.366;-0.222;2024-03-06T01:33:35;9.60;;;8.00;;
75744;SDS011;74462;51.366;-0.222;2024-03-06T01:34:39;10.50;;;7.30;;
75744;SDS011;74462;51.366;-0.222;2024-03-06T01:35:44;10.90;;;7.80;;
75744;SDS011;74462;51.366;-0.222;2024-03-06T01:36:48;13.40;;;12.10;;
75744;SDS011;74462;51.366;-0.222;2024-03-06T01:37:53;11.20;;;7.90;;
75744;SDS011;74462;51.366;-0.222;2024-03-06T01:38:57;9.70;;;7.50;;
75744;SDS011;74462;51.366;-0.222;2024-03-06T01:40:01;11.70;;;9.80;;
75744;SDS011;74462;51.366;-0.222;2024-03-06T01:41:06;12.40;;;8.30;;
75744;SDS011;74462;51.366;-0.222;2024-03-06T01:42:11;11.10;;;7.80;;
75744;SDS011;74462;51.366;-0.222;2024-03-06T01:43:20;15.30;;;9.70;;
75744;SDS011;74462;51.366;-0.222;2024-03-06T01:44:26;10.90;;;6.40;;
75744;SDS011;74462;51.366;-0.222;2024-03-06T01:45:30;12.00;;;7.50;;
75744;SDS011;74462;51.366;-0.222;2024-03-06T01:46:34;10.70;;;8.00;;
75744;SDS011;74462;51.366;-0.222;2024-03-06T01:47:39;9.80;;;7.20;;
75744;SDS011;74462;51.366;-0.222;2024-03-06T01:48:43;11.10;;;8.70;;
75744;SDS011;74462;51.366;-0.222;2024-03-06T01:49:48;9.30;;;6.90;;
75744;SDS011;74462;51.366;-0.222;2024-03-06T01:50:53;9.50;;;7.00;;
75744;SDS011;74462;51.366;-0.222;2024-03-06T01:52:01;9.90;;;7.30;;
75744;SDS011;74462;51.366;-0.222;2024-03-06T01:53:06;9.20;;;7.60;;
75744;SDS011;74462;51.366;-0.222;2024-03-06T01:54:12;12.30;;;7.90;;
75744;SDS011;74462;51.366;-0.222;2024-03-06T01:55:17;12.00;;;7.80;;
75744;SDS011;74462;51.366;-0.222;2024-03-06T01:56:22;12.50;;;9.60;;
75744;SDS011;74462;51.366;-0.222;2024-03-06T01:57:28;10.70;;;7.20;;
75744;SDS011;74462;51.366;-0.222;2024-03-06T01:58:33;13.30;;;8.10;;
75744;SDS011;74462;51.366;-0.222;2024-03-06T01:59:38;13.00;;;8.50;;
75744;SDS011;74462;51.366;-0.222;2024-03-06T02:00:43;15.20;;;11.00;;
75744;SDS011;74462;51.366;-0.222;2024-03-06T02:01:47;10.80;;;7.70;;
75744;SDS011;74462;51.366;-0.222;2024-03-06T02:02:55;13.20;;;11.10;;
75744;SDS011;74462;51.366;-0.222;2024-03-06T02:03:59;12.40;;;7.90;;
75744;SDS011;74462;51.366;-0.222;2024-03-06T02:05:04;14.10;;;10.80;;
75744;SDS011;74462;51.366;-0.222;2024-03-06T02:06:08;13.20;;;9.60;;
75744;SDS011;74462;51.366;-0.222;2024-03-06T02:07:14;11.40;;;8.90;;
75744;SDS011;74462;51.366;-0.222;2024-03-06T02:08:21;11.80;;;8.90;;
75744;SDS011;74462;51.366;-0.222;2024-03-06T02:09:25;13.80;;;8.90;;
75744;SDS011;74462;51.366;-0.222;2024-03-06T02:10:30;13.60;;;11.70;;
75744;SDS011;74462;51.366;-0.222;2024-03-06T02:11:34;11.80;;;8.40;;
75744;SDS011;74462;51.366;-0.222;2024-03-06T02:12:39;14.20;;;12.30;;
75744;SDS011;74462;51.366;-0.222;2024-03-06T02:13:44;12.00;;;8.70;;
75744;SDS011;74462;51.366;-0.222;2024-03-06T02:14:48;12.40;;;9.70;;
75744;SDS011;74462;51.366;-0.222;2024-03-06T02:15:53;12.30;;;7.90;;
75744;SDS011;74462;51.366;-0.222;2024-03-06T02:16:57;13.10;;;9.40;;
75744;SDS011;74462;51.366;-0.222;2024-03-06T02:18:05;12.50;;;8.20;;
75744;SDS011;74462;51.366;-0.222;2024-03-06T02:19:10;12.00;;;8.50;;
75744;SDS011;74462;51.366;-0.222;2024-03-06T02:20:15;14.70;;;8.50;;
75744;SDS011;74462;51.366;-0.222;2024-03-06T02:21:25;11.00;;;8.10;;
75744;SDS011;74462;51.366;-0.222;2024-03-06T02:22:29;12.30;;;7.60;;
75744;SDS011;74462;51.366;-0.222;2024-03-06T02:23:34;14.30;;;9.90;;
75744;SDS011;74462;51.366;-0.222;2024-03-06T02:24:44;15.80;;;13.00;;
75744;SDS011;74462;51.366;-0.222;2024-03-06T02:25:50;11.80;;;9.60;;
75744;SDS011;74462;51.366;-0.222;2024-03-06T02:26:55;11.10;;;8.50;;
75744;SDS011;74462;51.366;-0.222;2024-03-06T02:28:00;11.80;;;8.60;;
75744;SDS011;74462;51.366;-0.222;2024-03-06T02:29:05;11.90;;;8.10;;
75744;SDS011;74462;51.366;-0.222;2024-03-06T02:30:10;14.00;;;9.40;;
75744;SDS011;74462;51.366;-0.222;2024-03-06T02:31:15;14.30;;;8.60;;
75744;SDS011;74462;51.366;-0.222;2024-03-06T02:32:20;15.90;;;12.20;;
75744;SDS011;74462;51.366;-0.222;2024-03-06T02:33:24;13.20;;;9.30;;
75744;SDS011;74462;51.366;-0.222;2024-03-06T02:34:29;14.80;;;12.10;;
75744;SDS011;74462;51.366;-0.222;2024-03-06T02:35:33;13.50;;;10.40;;
75744;SDS011;74462;51.366;-0.222;2024-03-06T02:36:39;13.80;;;10.50;;
75744;SDS011;74462;51.366;-0.222;2024-03-06T02:37:43;13.60;;;11.00;;
75744;SDS011;74462;51.366;-0.222;2024-03-06T02:38:48;16.50;;;10.50;;
75744;SDS011;74462;51.366;-0.222;2024-03-06T02:39:53;14.90;;;12.70;;
75744;SDS011;74462;51.366;-0.222;2024-03-06T02:40:57;14.20;;;11.20;;
75744;SDS011;74462;51.366;-0.222;2024-03-06T02:42:02;15.80;;;9.50;;
75744;SDS011;74462;51.366;-0.222;2024-03-06T02:43:06;16.10;;;12.30;;
75744;SDS011;74462;51.366;-0.222;2024-03-06T02:44:11;16.60;;;12.20;;
75744;SDS011;74462;51.366;-0.222;2024-03-06T02:45:15;14.70;;;9.70;;
75744;SDS011;74462;51.366;-0.222;2024-03-06T02:46:20;17.00;;;12.60;;
75744;SDS011;74462;51.366;-0.222;2024-03-06T02:47:24;14.90;;;10.20;;
75744;SDS011;74462;51.366;-0.222;2024-03-06T02:48:29;16.30;;;13.10;;
75744;SDS011;74462;51.366;-0.222;2024-03-06T02:49:33;16.50;;;13.10;;
75744;SDS011;74462;51.366;-0.222;2024-03-06T02:50:37;14.60;;;10.00;;
75744;SDS011;74462;51.366;-0.222;2024-03-06T02:51:42;14.70;;;9.00;;
75744;SDS011;74462;51.366;-0.222;2024-03-06T02:52:46;16.00;;;9.40;;
75744;SDS011;74462;51.366;-0.222;2024-03-06T02:53:53;17.40;;;14.70;;
75744;SDS011;74462;51.366;-0.222;2024-03-06T02:54:57;14.50;;;9.80;;
75744;SDS011;74462;51.366;-0.222;2024-03-06T02:56:02;18.10;;;13.10;;
75744;SDS011;74462;51.366;-0.222;2024-03-06T02:57:07;16.40;;;10.20;;
75744;SDS011;74462;51.366;-0.222;2024-03-06T02:58:12;15.40;;;12.00;;
75744;SDS011;74462;51.366;-0.222;2024-03-06T02:59:17;15.30;;;11.00;;
75744;SDS011;74462;51.366;-0.222;2024-03-06T03:00:22;16.30;;;12.50;;
75744;SDS011;74462;51.366;-0.222;2024-03-06T03:01:26;15.10;;;11.00;;
75744;SDS011;74462;51.366;-0.222;2024-03-06T03:02:31;13.80;;;10.00;;
75744;SDS011;74462;51.366;-0.222;2024-03-06T03:03:35;17.80;;;9.80;;
75744;SDS011;74462;51.366;-0.222;2024-03-06T03:04:42;13.40;;;8.60;;
75744;SDS011;74462;51.366;-0.222;2024-03-06T03:05:46;13.50;;;10.40;;
75744;SDS011;74462;51.366;-0.222;2024-03-06T03:06:51;15.40;;;12.20;;
75744;SDS011;74462;51.366;-0.222;2024-03-06T03:07:56;13.10;;;9.70;;
75744;SDS011;74462;51.366;-0.222;2024-03-06T03:09:00;16.30;;;10.30;;
75744;SDS011;74462;51.366;-0.222;2024-03-06T03:10:05;17.40;;;13.50;;
75744;SDS011;74462;51.366;-0.222;2024-03-06T03:11:12;19.30;;;11.90;;
75744;SDS011;74462;51.366;-0.222;2024-03-06T03:12:17;16.10;;;9.90;;
75744;SDS011;74462;51.366;-0.222;2024-03-06T03:13:21;17.40;;;12.90;;
75744;SDS011;74462;51.366;-0.222;2024-03-06T03:14:26;16.80;;;12.60;;
75744;SDS011;74462;51.366;-0.222;2024-03-06T03:15:30;16.70;;;10.50;;
75744;SDS011;74462;51.366;-0.222;2024-03-06T03:16:34;15.80;;;10.40;;
75744;SDS011;74462;51.366;-0.222;2024-03-06T03:17:39;17.60;;;10.80;;
75744;SDS011;74462;51.366;-0.222;2024-03-06T03:18:43;15.50;;;9.70;;
75744;SDS011;74462;51.366;-0.222;2024-03-06T03:19:49;15.90;;;13.50;;
75744;SDS011;74462;51.366;-0.222;2024-03-06T03:20:53;14.10;;;10.10;;
75744;SDS011;74462;51.366;-0.222;2024-03-06T03:21:58;14.80;;;10.00;;
75744;SDS011;74462;51.366;-0.222;2024-03-06T03:23:05;19.80;;;12.30;;
75744;SDS011;74462;51.366;-0.222;2024-03-06T03:24:13;19.40;;;10.70;;
75744;SDS011;74462;51.366;-0.222;2024-03-06T03:25:17;17.20;;;10.20;;
75744;SDS011;74462;51.366;-0.222;2024-03-06T03:26:25;15.30;;;10.10;;
75744;SDS011;74462;51.366;-0.222;2024-03-06T03:27:29;18.20;;;10.60;;
75744;SDS011;74462;51.366;-0.222;2024-03-06T03:28:34;17.80;;;11.90;;
75744;SDS011;74462;51.366;-0.222;2024-03-06T03:29:40;16.60;;;10.80;;
75744;SDS011;74462;51.366;-0.222;2024-03-06T03:30:45;18.90;;;13.90;;
75744;SDS011;74462;51.366;-0.222;2024-03-06T03:31:49;17.70;;;12.50;;
75744;SDS011;74462;51.366;-0.222;2024-03-06T03:32:54;16.10;;;10.60;;
75744;SDS011;74462;51.366;-0.222;2024-03-06T03:33:58;17.50;;;10.40;;
75744;SDS011;74462;51.366;-0.222;2024-03-06T03:35:03;18.00;;;10.80;;
75744;SDS011;74462;51.366;-0.222;2024-03-06T03:36:08;17.00;;;10.10;;
75744;SDS011;74462;51.366;-0.222;2024-03-06T03:37:14;16.00;;;10.40;;
75744;SDS011;74462;51.366;-0.222;2024-03-06T03:38:18;18.20;;;13.20;;
75744;SDS011;74462;51.366;-0.222;2024-03-06T03:39:23;15.10;;;10.60;;
75744;SDS011;74462;51.366;-0.222;2024-03-06T03:40:28;18.10;;;14.70;;
75744;SDS011;74462;51.366;-0.222;2024-03-06T03:41:34;16.30;;;10.60;;
75744;SDS011;74462;51.366;-0.222;2024-03-06T03:42:38;17.00;;;10.30;;
75744;SDS011;74462;51.366;-0.222;2024-03-06T03:43:43;18.30;;;9.70;;
75744;SDS011;74462;51.366;-0.222;2024-03-06T03:44:47;17.60;;;9.90;;
75744;SDS011;74462;51.366;-0.222;2024-03-06T03:45:52;17.60;;;12.80;;
75744;SDS011;74462;51.366;-0.222;2024-03-06T03:46:56;19.40;;;13.40;;
75744;SDS011;74462;51.366;-0.222;2024-03-06T03:48:01;16.10;;;12.50;;
75744;SDS011;74462;51.366;-0.222;2024-03-06T03:49:06;17.10;;;13.60;;
75744;SDS011;74462;51.366;-0.222;2024-03-06T03:50:11;20.10;;;16.30;;
75744;SDS011;74462;51.366;-0.222;2024-03-06T03:51:16;16.80;;;10.60;;
75744;SDS011;74462;51.366;-0.222;2024-03-06T03:52:21;17.00;;;12.40;;
75744;SDS011;74462;51.366;-0.222;2024-03-06T03:53:25;16.50;;;11.40;;
75744;SDS011;74462;51.366;-0.222;2024-03-06T03:54:30;16.20;;;12.30;;
75744;SDS011;74462;51.366;-0.222;2024-03-06T03:55:34;17.50;;;14.40;;
75744;SDS011;74462;51.366;-0.222;2024-03-06T03:56:38;17.30;;;12.60;;
75744;SDS011;74462;51.366;-0.222;2024-03-06T03:57:43;17.60;;;11.30;;
75744;SDS011;74462;51.366;-0.222;2024-03-06T03:58:47;16.30;;;10.20;;
75744;SDS011;74462;51.366;-0.222;2024-03-06T03:59:51;16.20;;;10.90;;
75744;SDS011;74462;51.366;-0.222;2024-03-06T04:00:56;17.60;;;12.90;;
75744;SDS011;74462;51.366;-0.222;2024-03-06T04:02:00;17.90;;;11.50;;
75744;SDS011;74462;51.366;-0.222;2024-03-06T04:03:05;18.20;;;13.00;;
75744;SDS011;74462;51.366;-0.222;2024-03-06T04:04:10;15.70;;;10.00;;
75744;SDS011;74462;51.366;-0.222;2024-03-06T04:05:14;24.50;;;9.30;;
75744;SDS011;74462;51.366;-0.222;2024-03-06T04:06:18;17.20;;;13.30;;
75744;SDS011;74462;51.366;-0.222;2024-03-06T04:07:23;17.10;;;9.70;;
75744;SDS011;74462;51.366;-0.222;2024-03-06T04:08:27;18.30;;;13.40;;
75744;SDS011;74462;51.366;-0.222;2024-03-06T04:10:37;18.30;;;12.80;;
75744;SDS011;74462;51.366;-0.222;2024-03-06T04:11:42;16.40;;;10.50;;
75744;SDS011;74462;51.366;-0.222;2024-03-06T04:12:46;17.60;;;13.70;;
75744;SDS011;74462;51.366;-0.222;2024-03-06T04:13:51;18.90;;;11.70;;
75744;SDS011;74462;51.366;-0.222;2024-03-06T04:14:56;17.20;;;11.20;;
75744;SDS011;74462;51.366;-0.222;2024-03-06T04:16:00;16.00;;;10.90;;
75744;SDS011;74462;51.366;-0.222;2024-03-06T04:17:05;17.10;;;11.00;;
75744;SDS011;74462;51.366;-0.222;2024-03-06T04:18:09;21.70;;;14.50;;
75744;SDS011;74462;51.366;-0.222;2024-03-06T04:19:14;17.60;;;12.60;;
75744;SDS011;74462;51.366;-0.222;2024-03-06T04:20:18;19.80;;;12.80;;
75744;SDS011;74462;51.366;-0.222;2024-03-06T04:21:23;18.30;;;13.30;;
75744;SDS011;74462;51.366;-0.222;2024-03-06T04:22:27;15.90;;;11.80;;
75744;SDS011;74462;51.366;-0.222;2024-03-06T04:23:32;18.40;;;14.80;;
75744;SDS011;74462;51.366;-0.222;2024-03-06T04:24:40;16.70;;;10.70;;
75744;SDS011;74462;51.366;-0.222;2024-03-06T04:25:45;17.10;;;10.70;;
75744;SDS011;74462;51.366;-0.222;2024-03-06T04:26:49;20.50;;;13.10;;
75744;SDS011;74462;51.366;-0.222;2024-03-06T04:27:53;17.40;;;11.20;;
75744;SDS011;74462;51.366;-0.222;2024-03-06T04:28:58;19.60;;;12.30;;
75744;SDS011;74462;51.366;-0.222;2024-03-06T04:30:03;18.70;;;12.80;;
75744;SDS011;74462;51.366;-0.222;2024-03-06T04:31:09;15.30;;;11.50;;
75744;SDS011;74462;51.366;-0.222;2024-03-06T04:32:13;18.70;;;12.00;;
75744;SDS011;74462;51.366;-0.222;2024-03-06T04:33:18;19.60;;;14.30;;
75744;SDS011;74462;51.366;-0.222;2024-03-06T04:34:22;20.40;;;16.10;;
75744;SDS011;74462;51.366;-0.222;2024-03-06T04:35:28;18.30;;;12.20;;
75744;SDS011;74462;51.366;-0.222;2024-03-06T04:36:37;19.80;;;12.90;;
75744;SDS011;74462;51.366;-0.222;2024-03-06T04:37:41;18.30;;;13.50;;
75744;SDS011;74462;51.366;-0.222;2024-03-06T04:38:46;17.80;;;12.80;;
75744;SDS011;74462;51.366;-0.222;2024-03-06T04:39:50;17.50;;;13.60;;
75744;SDS011;74462;51.366;-0.222;2024-03-06T04:40:55;18.60;;;11.70;;
75744;SDS011;74462;51.366;-0.222;2024-03-06T04:41:59;19.20;;;13.60;;
75744;SDS011;74462;51.366;-0.222;2024-03-06T04:43:04;16.80;;;10.80;;
75744;SDS011;74462;51.366;-0.222;2024-03-06T04:44:09;19.80;;;10.90;;
75744;SDS011;74462;51.366;-0.222;2024-03-06T04:45:14;16.90;;;10.70;;
75744;SDS011;74462;51.366;-0.222;2024-03-06T04:46:19;17.90;;;12.00;;
75744;SDS011;74462;51.366;-0.222;2024-03-06T04:47:25;16.60;;;11.80;;
75744;SDS011;74462;51.366;-0.222;2024-03-06T04:48:29;20.60;;;14.70;;
75744;SDS011;74462;51.366;-0.222;2024-03-06T04:49:33;18.70;;;12.70;;
75744;SDS011;74462;51.366;-0.222;2024-03-06T04:50:38;19.90;;;15.00;;
75744;SDS011;74462;51.366;-0.222;2024-03-06T04:51:42;19.40;;;12.10;;
75744;SDS011;74462;51.366;-0.222;2024-03-06T04:52:47;17.50;;;15.40;;
75744;SDS011;74462;51.366;-0.222;2024-03-06T04:53:51;17.90;;;11.50;;
75744;SDS011;74462;51.366;-0.222;2024-03-06T04:54:56;16.00;;;11.10;;
75744;SDS011;74462;51.366;-0.222;2024-03-06T04:56:00;17.30;;;11.80;;
75744;SDS011;74462;51.366;-0.222;2024-03-06T04:57:05;18.20;;;11.70;;
75744;SDS011;74462;51.366;-0.222;2024-03-06T04:58:09;17.60;;;11.20;;
75744;SDS011;74462;51.366;-0.222;2024-03-06T04:59:14;20.20;;;14.10;;
75744;SDS011;74462;51.366;-0.222;2024-03-06T05:00:18;19.80;;;12.60;;
75744;SDS011;74462;51.366;-0.222;2024-03-06T05:01:23;19.10;;;12.40;;
75744;SDS011;74462;51.366;-0.222;2024-03-06T05:02:27;17.30;;;13.60;;
75744;SDS011;74462;51.366;-0.222;2024-03-06T05:03:32;25.80;;;12.50;;
75744;SDS011;74462;51.366;-0.222;2024-03-06T05:04:36;18.30;;;15.80;;
75744;SDS011;74462;51.366;-0.222;2024-03-06T05:05:40;22.50;;;14.90;;
75744;SDS011;74462;51.366;-0.222;2024-03-06T05:06:45;22.00;;;15.00;;
75744;SDS011;74462;51.366;-0.222;2024-03-06T05:07:49;21.70;;;16.10;;
75744;SDS011;74462;51.366;-0.222;2024-03-06T05:08:54;19.50;;;12.80;;
75744;SDS011;74462;51.366;-0.222;2024-03-06T05:09:58;21.60;;;13.70;;
75744;SDS011;74462;51.366;-0.222;2024-03-06T05:11:03;24.70;;;14.50;;
75744;SDS011;74462;51.366;-0.222;2024-03-06T05:12:09;26.90;;;18.50;;
75744;SDS011;74462;51.366;-0.222;2024-03-06T05:13:13;23.10;;;15.80;;
75744;SDS011;74462;51.366;-0.222;2024-03-06T05:14:18;23.80;;;14.50;;
75744;SDS011;74462;51.366;-0.222;2024-03-06T05:15:22;26.90;;;18.60;;
75744;SDS011;74462;51.366;-0.222;2024-03-06T05:16:27;30.10;;;18.40;;
75744;SDS011;74462;51.366;-0.222;2024-03-06T05:17:31;26.80;;;16.30;;
75744;SDS011;74462;51.366;-0.222;2024-03-06T05:18:35;28.90;;;18.10;;
75744;SDS011;74462;51.366;-0.222;2024-03-06T05:19:40;28.80;;;14.90;;
75744;SDS011;74462;51.366;-0.222;2024-03-06T05:20:44;31.10;;;15.70;;
75744;SDS011;74462;51.366;-0.222;2024-03-06T05:21:49;29.20;;;15.00;;
75744;SDS011;74462;51.366;-0.222;2024-03-06T05:22:53;31.30;;;20.00;;
75744;SDS011;74462;51.366;-0.222;2024-03-06T05:23:58;31.30;;;17.40;;
75744;SDS011;74462;51.366;-0.222;2024-03-06T05:25:02;30.10;;;18.20;;
75744;SDS011;74462;51.366;-0.222;2024-03-06T05:26:08;34.80;;;18.30;;
75744;SDS011;74462;51.366;-0.222;2024-03-06T05:27:12;33.40;;;18.60;;
75744;SDS011;74462;51.366;-0.222;2024-03-06T05:28:18;33.10;;;16.70;;
75744;SDS011;74462;51.366;-0.222;2024-03-06T05:29:23;30.80;;;16.60;;
75744;SDS011;74462;51.366;-0.222;2024-03-06T05:30:27;28.60;;;14.80;;
75744;SDS011;74462;51.366;-0.222;2024-03-06T05:31:32;36.60;;;21.70;;
75744;SDS011;74462;51.366;-0.222;2024-03-06T05:32:36;35.80;;;15.80;;
75744;SDS011;74462;51.366;-0.222;2024-03-06T05:33:40;31.40;;;17.10;;
75744;SDS011;74462;51.366;-0.222;2024-03-06T05:34:45;31.00;;;16.20;;
75744;SDS011;74462;51.366;-0.222;2024-03-06T05:35:49;29.10;;;14.70;;
75744;SDS011;74462;51.366;-0.222;2024-03-06T05:36:54;28.60;;;16.40;;
75744;SDS011;74462;51.366;-0.222;2024-03-06T05:37:58;33.80;;;16.10;;
75744;SDS011;74462;51.366;-0.222;2024-03-06T05:39:03;31.30;;;17.40;;
75744;SDS011;74462;51.366;-0.222;2024-03-06T05:40:09;30.10;;;15.30;;
75744;SDS011;74462;51.366;-0.222;2024-03-06T05:41:15;32.30;;;16.40;;
75744;SDS011;74462;51.366;-0.222;2024-03-06T05:42:20;35.50;;;21.00;;
75744;SDS011;74462;51.366;-0.222;2024-03-06T05:43:25;35.30;;;15.60;;
75744;SDS011;74462;51.366;-0.222;2024-03-06T05:44:31;32.80;;;16.80;;
75744;SDS011;74462;51.366;-0.222;2024-03-06T05:45:36;30.20;;;16.70;;
75744;SDS011;74462;51.366;-0.222;2024-03-06T05:46:40;32.80;;;20.70;;
75744;SDS011;74462;51.366;-0.222;2024-03-06T05:47:45;30.20;;;16.00;;
75744;SDS011;74462;51.366;-0.222;2024-03-06T05:48:49;32.40;;;15.90;;
75744;SDS011;74462;51.366;-0.222;2024-03-06T05:49:54;28.70;;;18.40;;
75744;SDS011;74462;51.366;-0.222;2024-03-06T05:50:58;30.80;;;17.70;;
75744;SDS011;74462;51.366;-0.222;2024-03-06T05:52:03;30.00;;;16.30;;
75744;SDS011;74462;51.366;-0.222;2024-03-06T05:53:07;29.30;;;19.00;;
75744;SDS011;74462;51.366;-0.222;2024-03-06T05:54:12;32.70;;;19.80;;
75744;SDS011;74462;51.366;-0.222;2024-03-06T05:55:17;30.60;;;15.00;;
75744;SDS011;74462;51.366;-0.222;2024-03-06T05:56:21;30.50;;;15.60;;
75744;SDS011;74462;51.366;-0.222;2024-03-06T05:57:27;31.00;;;15.20;;
75744;SDS011;74462;51.366;-0.222;2024-03-06T05:58:32;31.10;;;14.40;;
75744;SDS011;74462;51.366;-0.222;2024-03-06T05:59:37;30.90;;;16.50;;
75744;SDS011;74462;51.366;-0.222;2024-03-06T06:00:42;31.70;;;16.90;;
75744;SDS011;74462;51.366;-0.222;2024-03-06T06:01:46;26.90;;;15.90;;
75744;SDS011;74462;51.366;-0.222;2024-03-06T06:02:51;30.80;;;16.30;;
75744;SDS011;74462;51.366;-0.222;2024-03-06T06:03:55;28.80;;;18.20;;
75744;SDS011;74462;51.366;-0.222;2024-03-06T06:05:00;26.30;;;14.20;;
75744;SDS011;74462;51.366;-0.222;2024-03-06T06:06:05;28.20;;;14.10;;
75744;SDS011;74462;51.366;-0.222;2024-03-06T06:07:10;29.00;;;14.40;;
75744;SDS011;74462;51.366;-0.222;2024-03-06T06:08:15;30.30;;;15.50;;
75744;SDS011;74462;51.366;-0.222;2024-03-06T06:09:19;30.00;;;14.40;;
75744;SDS011;74462;51.366;-0.222;2024-03-06T06:10:24;29.80;;;17.20;;
75744;SDS011;74462;51.366;-0.222;2024-03-06T06:11:28;32.10;;;20.40;;
75744;SDS011;74462;51.366;-0.222;2024-03-06T06:12:33;31.90;;;17.30;;
75744;SDS011;74462;51.366;-0.222;2024-03-06T06:13:37;28.00;;;14.90;;
75744;SDS011;74462;51.366;-0.222;2024-03-06T06:14:42;26.60;;;17.40;;
75744;SDS011;74462;51.366;-0.222;2024-03-06T06:15:46;27.50;;;15.70;;
75744;SDS011;74462;51.366;-0.222;2024-03-06T06:16:51;32.10;;;18.10;;
75744;SDS011;74462;51.366;-0.222;2024-03-06T06:17:55;30.10;;;18.40;;